Time;durP1;ratioP1;P1;durP2;ratioP2;P2;SDS_P1;SDS_P2;PMS_P1;PMS_P2;Temp;Humidity;BMP_temperature;BMP_pressure;BME280_temperature;BME280_humidity;BME280_pressure;Samples;Min_cycle;Max_cycle;Signal;HPM_P1;HPM_P2
2021/05/09 00:01:01;;;;;;;7.10;6.40;;;12.10;98.80;;;;;;6200724;23;20418;-88
2021/05/09 00:03:27;;;;;;;6.83;6.13;;;12.10;98.50;;;;;;6211005;23;20446;-88
2021/05/09 00:05:57;;;;;;;6.97;6.20;;;12.10;98.30;;;;;;6206782;23;20409;-88
2021/05/09 00:08:23;;;;;;;6.70;6.00;;;12.10;98.10;;;;;;6200882;23;20405;-89
2021/05/09 00:10:50;;;;;;;5.90;5.30;;;12.00;98.40;;;;;;6199876;23;20435;-88
2021/05/09 00:13:16;;;;;;;6.53;5.93;;;12.00;98.80;;;;;;6203706;23;20405;-88
2021/05/09 00:15:43;;;;;;;7.30;6.60;;;12.00;98.90;;;;;;6205925;23;20424;-88
2021/05/09 00:18:10;;;;;;;8.33;6.10;;;12.10;99.00;;;;;;6202310;23;20410;-89
2021/05/09 00:20:36;;;;;;;6.97;5.20;;;12.00;99.00;;;;;;6199978;23;20493;-89
2021/05/09 00:23:10;;;;;;;7.17;6.00;;;12.10;98.90;;;;;;6198211;23;20449;-90
2021/05/09 00:25:39;;;;;;;6.60;6.00;;;12.00;98.90;;;;;;6192571;23;20418;-89
2021/05/09 00:28:11;;;;;;;5.20;4.70;;;11.90;99.30;;;;;;6192139;23;20445;-89
2021/05/09 00:30:41;;;;;;;5.80;5.30;;;11.90;99.50;;;;;;6199177;23;20428;-90
2021/05/09 00:33:14;;;;;;;7.60;6.37;;;11.90;99.80;;;;;;6200695;23;20542;-89
2021/05/09 00:35:44;;;;;;;6.10;5.40;;;11.90;99.60;;;;;;6199794;23;20421;-89
2021/05/09 00:38:13;;;;;;;6.07;5.50;;;11.90;99.50;;;;;;6194687;23;20414;-88
2021/05/09 00:40:42;;;;;;;6.20;5.60;;;12.00;99.40;;;;;;6198779;23;20463;-90
2021/05/09 00:43:11;;;;;;;6.27;5.67;;;11.90;99.30;;;;;;6200824;23;20441;-89
2021/05/09 00:45:37;;;;;;;7.67;5.43;;;11.80;99.70;;;;;;6201235;23;20394;-87
2021/05/09 00:48:12;;;;;;;6.53;5.90;;;11.70;99.90;;;;;;6199918;23;20439;-89
2021/05/09 00:50:48;;;;;;;6.03;5.53;;;11.70;99.90;;;;;;6201744;23;20742;-88
2021/05/09 00:53:19;;;;;;;7.60;5.07;;;11.70;99.90;;;;;;6205914;23;20402;-89
2021/05/09 00:55:51;;;;;;;6.97;6.27;;;11.70;99.90;;;;;;6201805;23;20474;-88
2021/05/09 00:58:28;;;;;;;9.97;6.83;;;11.70;99.90;;;;;;6211245;23;20381;-88
2021/05/09 01:00:57;;;;;;;8.47;6.07;;;11.70;99.90;;;;;;6212127;23;20410;-89
2021/05/09 01:03:28;;;;;;;12.10;7.33;;;11.70;99.90;;;;;;6210586;23;20534;-89
2021/05/09 01:05:56;;;;;;;7.90;6.10;;;11.60;99.90;;;;;;6209234;23;20401;-89
2021/05/09 01:08:30;;;;;;;5.87;5.27;;;11.50;99.90;;;;;;6210286;23;20471;-89
2021/05/09 01:10:58;;;;;;;6.60;5.97;;;11.50;99.90;;;;;;6204559;23;20441;-89
2021/05/09 01:13:30;;;;;;;7.80;6.43;;;11.50;99.90;;;;;;6200204;23;20410;-89
2021/05/09 01:16:02;;;;;;;5.90;5.40;;;11.50;99.90;;;;;;6209351;23;20399;-88
2021/05/09 01:18:37;;;;;;;9.97;5.60;;;11.60;99.90;;;;;;6206907;23;20421;-89
2021/05/09 01:21:11;;;;;;;5.57;5.10;;;11.60;99.90;;;;;;6212760;23;20420;-88
2021/05/09 01:23:49;;;;;;;6.03;5.40;;;11.60;99.90;;;;;;6213864;23;20447;-89
2021/05/09 01:26:15;;;;;;;9.03;5.93;;;11.50;99.90;;;;;;6209290;23;20518;-89
2021/05/09 01:28:53;;;;;;;6.90;6.20;;;11.50;99.90;;;;;;6209477;23;20398;-88
2021/05/09 01:31:19;;;;;;;6.50;5.70;;;11.40;99.90;;;;;;6212575;23;20398;-88
2021/05/09 01:33:48;;;;;;;7.20;5.30;;;11.40;99.90;;;;;;6212555;23;20425;-89
2021/05/09 01:36:23;;;;;;;7.03;5.90;;;11.30;99.90;;;;;;6209061;23;20464;-88
2021/05/09 01:38:49;;;;;;;5.93;5.40;;;11.30;99.90;;;;;;6206003;23;20461;-87
2021/05/09 01:41:19;;;;;;;6.20;5.13;;;11.40;99.90;;;;;;6207754;23;20405;-89
2021/05/09 01:43:52;;;;;;;5.93;4.93;;;11.40;99.90;;;;;;6207271;23;20477;-89
2021/05/09 01:46:18;;;;;;;10.70;5.70;;;11.40;99.90;;;;;;6205386;23;20442;-88
2021/05/09 01:48:47;;;;;;;6.93;6.23;;;11.30;99.90;;;;;;6204364;23;20426;-91
2021/05/09 01:51:15;;;;;;;7.97;5.27;;;11.40;99.90;;;;;;6211298;23;20421;-88
2021/05/09 01:53:42;;;;;;;7.30;5.37;;;11.30;99.90;;;;;;6209487;23;20470;-89
2021/05/09 01:56:18;;;;;;;5.80;5.17;;;11.30;99.90;;;;;;6198076;23;20430;-88
2021/05/09 01:58:55;;;;;;;7.20;6.60;;;11.20;99.90;;;;;;6193932;23;20481;-88
2021/05/09 02:01:22;;;;;;;6.00;5.50;;;11.20;99.90;;;;;;6208430;23;20402;-88
2021/05/09 02:03:52;;;;;;;6.13;5.63;;;11.20;99.90;;;;;;6213265;23;20436;-89
2021/05/09 02:06:20;;;;;;;6.53;5.70;;;11.20;99.90;;;;;;6209782;23;20434;-89
2021/05/09 02:08:51;;;;;;;7.17;5.40;;;11.10;99.90;;;;;;6198136;23;20414;-88
2021/05/09 02:11:25;;;;;;;5.27;4.80;;;11.10;99.90;;;;;;6211551;23;20417;-89
2021/05/09 02:13:54;;;;;;;7.57;5.33;;;11.10;99.90;;;;;;6201570;23;20449;-88
2021/05/09 02:16:24;;;;;;;7.00;5.70;;;11.10;99.90;;;;;;6191235;23;20438;-88
2021/05/09 02:18:53;;;;;;;6.87;6.20;;;11.10;99.90;;;;;;6199704;23;20508;-88
2021/05/09 02:21:25;;;;;;;5.83;5.20;;;11.10;99.90;;;;;;6188536;23;20900;-89
2021/05/09 02:23:51;;;;;;;6.80;5.80;;;11.10;99.90;;;;;;6188768;23;20462;-88
2021/05/09 02:26:20;;;;;;;7.60;5.93;;;11.10;99.90;;;;;;6189110;23;20772;-89
2021/05/09 02:28:46;;;;;;;5.80;5.17;;;11.10;99.90;;;;;;6187847;23;20433;-89
2021/05/09 02:31:14;;;;;;;6.13;5.40;;;11.10;99.90;;;;;;6200563;23;20409;-89
2021/05/09 02:33:40;;;;;;;8.63;4.93;;;11.10;99.90;;;;;;6205507;23;20387;-88
2021/05/09 02:36:07;;;;;;;6.10;4.83;;;11.00;99.90;;;;;;6200353;23;20433;-89
2021/05/09 02:38:38;;;;;;;5.17;4.73;;;11.10;99.90;;;;;;6198413;23;20418;-89
2021/05/09 02:41:06;;;;;;;6.70;5.20;;;11.10;99.90;;;;;;6206607;23;20422;-90
2021/05/09 02:43:33;;;;;;;9.63;5.33;;;11.10;99.90;;;;;;6203333;23;20444;-88
2021/05/09 02:45:59;;;;;;;5.73;5.23;;;11.10;99.90;;;;;;6201113;23;20429;-88
2021/05/09 02:48:26;;;;;;;6.23;5.63;;;11.10;99.90;;;;;;6208288;23;20394;-89
2021/05/09 02:50:55;;;;;;;7.77;5.83;;;11.10;99.90;;;;;;6208697;23;20402;-90
2021/05/09 02:53:25;;;;;;;5.23;4.73;;;11.10;99.90;;;;;;6208053;23;20410;-89
2021/05/09 02:55:57;;;;;;;5.43;4.97;;;11.00;99.90;;;;;;6200326;23;20897;-88
2021/05/09 02:58:23;;;;;;;5.27;4.77;;;11.00;99.90;;;;;;6201420;23;20417;-90
2021/05/09 03:00:50;;;;;;;5.37;4.97;;;11.10;99.90;;;;;;6201305;23;20426;-90
2021/05/09 03:03:16;;;;;;;6.13;5.50;;;11.10;99.90;;;;;;6204593;23;20502;-88
2021/05/09 03:06:06;;;;;;;5.50;4.93;;;11.10;99.90;;;;;;6200603;23;20469;-90
2021/05/09 03:08:43;;;;;;;6.17;5.50;;;11.10;99.90;;;;;;6200974;23;20416;-88
2021/05/09 03:11:39;;;;;;;5.07;4.60;;;11.20;99.90;;;;;;6200045;23;20405;-89
2021/05/09 03:14:44;;;;;;;6.17;5.60;;;11.20;99.90;;;;;;6203327;23;20461;-90
2021/05/09 03:17:39;;;;;;;6.97;5.50;;;11.30;99.90;;;;;;6190883;23;20437;-90
2021/05/09 03:20:16;;;;;;;6.00;5.47;;;11.20;99.90;;;;;;6177177;23;20740;-89
2021/05/09 03:23:05;;;;;;;6.97;6.27;;;11.10;99.90;;;;;;6192496;23;20402;-89
2021/05/09 03:25:46;;;;;;;6.03;5.53;;;11.00;99.90;;;;;;6203798;23;20923;-89
2021/05/09 03:28:29;;;;;;;4.83;4.33;;;10.90;99.90;;;;;;6203815;23;20421;-88
2021/05/09 03:31:15;;;;;;;6.97;6.27;;;10.90;99.90;;;;;;6203811;23;20411;-89
2021/05/09 03:33:56;;;;;;;5.90;5.20;;;11.00;99.90;;;;;;6211373;23;20477;-88
2021/05/09 03:36:35;;;;;;;5.60;5.13;;;11.00;99.90;;;;;;6207070;23;20495;-90
2021/05/09 03:39:08;;;;;;;4.67;4.27;;;11.00;99.90;;;;;;6212001;23;20461;-88
2021/05/09 03:41:37;;;;;;;6.43;5.20;;;10.90;99.90;;;;;;6213792;23;20412;-88
2021/05/09 03:44:12;;;;;;;5.50;4.93;;;10.90;99.90;;;;;;6214304;23;20454;-88
2021/05/09 03:46:38;;;;;;;4.70;4.30;;;10.90;99.90;;;;;;6213003;23;20417;-89
2021/05/09 03:49:05;;;;;;;4.53;4.10;;;10.90;99.90;;;;;;6206163;23;20410;-88
2021/05/09 03:51:31;;;;;;;5.60;4.90;;;10.90;99.90;;;;;;6205601;23;20409;-89
2021/05/09 03:53:57;;;;;;;6.37;5.77;;;10.90;99.90;;;;;;6208159;23;20402;-89
2021/05/09 03:56:24;;;;;;;7.90;7.20;;;10.80;99.90;;;;;;6203976;23;20456;-89
2021/05/09 03:58:50;;;;;;;6.03;5.20;;;10.90;99.90;;;;;;6204024;23;20432;-88
2021/05/09 04:01:20;;;;;;;5.47;4.63;;;11.00;99.90;;;;;;6194419;23;20433;-89
2021/05/09 04:03:46;;;;;;;5.00;4.30;;;10.90;99.90;;;;;;6204530;23;20438;-87
2021/05/09 04:06:12;;;;;;;5.23;4.73;;;11.00;99.90;;;;;;6206874;23;20426;-88
2021/05/09 04:08:39;;;;;;;4.47;4.17;;;11.10;99.90;;;;;;6200878;23;20429;-88
2021/05/09 04:11:06;;;;;;;5.53;5.03;;;11.10;99.90;;;;;;6205772;23;20413;-88
2021/05/09 04:13:43;;;;;;;5.47;5.00;;;11.10;99.90;;;;;;6190061;23;20476;-87
2021/05/09 04:16:10;;;;;;;5.00;4.60;;;11.10;99.90;;;;;;6194929;23;20426;-89
2021/05/09 04:18:37;;;;;;;5.40;4.90;;;11.10;99.90;;;;;;6202328;23;20485;-89
2021/05/09 04:21:04;;;;;;;5.47;4.97;;;11.10;99.90;;;;;;6196513;23;20529;-88
2021/05/09 04:23:30;;;;;;;5.50;4.77;;;11.20;99.90;;;;;;6203287;23;20461;-90
2021/05/09 04:25:57;;;;;;;5.73;4.60;;;11.20;99.90;;;;;;6197606;23;20895;-89
2021/05/09 04:28:23;;;;;;;5.43;4.90;;;11.20;99.90;;;;;;6199024;23;20429;-88
2021/05/09 04:30:50;;;;;;;4.93;4.20;;;11.20;99.90;;;;;;6198251;23;20452;-88
2021/05/09 04:33:16;;;;;;;5.83;5.03;;;11.20;99.90;;;;;;6202465;23;20542;-89
2021/05/09 04:35:45;;;;;;;4.90;4.50;;;11.30;99.90;;;;;;6203150;23;20467;-88
2021/05/09 04:38:12;;;;;;;5.33;4.00;;;11.30;99.90;;;;;;6211024;23;20386;-88
2021/05/09 04:40:38;;;;;;;7.60;4.20;;;11.40;99.90;;;;;;6213500;23;20477;-89
2021/05/09 04:43:06;;;;;;;4.73;4.33;;;11.50;99.90;;;;;;6203950;23;20456;-89
2021/05/09 04:45:32;;;;;;;4.70;4.27;;;11.60;99.90;;;;;;6206830;23;20741;-88
2021/05/09 04:47:58;;;;;;;5.20;4.50;;;11.70;99.90;;;;;;6213281;23;20480;-88
2021/05/09 04:50:24;;;;;;;4.50;4.10;;;11.80;99.90;;;;;;6214121;23;20410;-87
2021/05/09 04:52:51;;;;;;;4.50;3.77;;;11.70;99.90;;;;;;6212995;23;20454;-88
2021/05/09 04:55:23;;;;;;;4.07;3.70;;;11.80;99.90;;;;;;6214090;23;20390;-89
2021/05/09 04:57:50;;;;;;;4.10;3.80;;;11.80;99.90;;;;;;6210280;23;20430;-89
2021/05/09 05:00:16;;;;;;;5.43;4.00;;;11.80;99.90;;;;;;6199646;23;20413;-89
2021/05/09 05:02:44;;;;;;;4.67;4.20;;;11.80;99.90;;;;;;6204573;23;20426;-89
2021/05/09 05:05:11;;;;;;;4.67;4.07;;;11.90;99.90;;;;;;6209196;23;20405;-89
2021/05/09 05:07:38;;;;;;;5.30;4.80;;;12.10;99.60;;;;;;6197294;23;20434;-89
2021/05/09 05:10:06;;;;;;;4.07;3.73;;;12.40;99.90;;;;;;6198317;23;20410;-90
2021/05/09 05:12:33;;;;;;;4.77;3.80;;;13.10;98.90;;;;;;6199063;23;20410;-87
2021/05/09 05:14:59;;;;;;;4.10;3.67;;;13.70;96.90;;;;;;6197488;23;20410;-89
2021/05/09 05:17:25;;;;;;;4.53;3.80;;;14.00;95.80;;;;;;6199587;23;20441;-88
2021/05/09 05:19:52;;;;;;;7.03;4.57;;;14.30;94.90;;;;;;6197502;23;20402;-89
2021/05/09 05:22:18;;;;;;;3.90;3.50;;;14.60;94.20;;;;;;6193016;23;20417;-89
2021/05/09 05:24:44;;;;;;;4.10;3.57;;;15.10;93.30;;;;;;6193056;23;20450;-89
2021/05/09 05:27:11;;;;;;;4.60;4.20;;;15.70;91.70;;;;;;6207758;23;20494;-87
2021/05/09 05:29:38;;;;;;;4.23;3.60;;;16.00;90.50;;;;;;6212991;23;20389;-89
2021/05/09 05:32:05;;;;;;;3.90;3.50;;;15.90;89.80;;;;;;6204086;23;20405;-89
2021/05/09 05:34:31;;;;;;;5.40;4.20;;;15.60;89.60;;;;;;6214129;23;20402;-87
2021/05/09 05:36:57;;;;;;;4.60;4.13;;;15.40;90.10;;;;;;6209918;23;20453;-89
2021/05/09 05:39:24;;;;;;;4.70;4.30;;;15.20;90.40;;;;;;6197978;23;20394;-89
2021/05/09 05:41:50;;;;;;;4.53;4.13;;;14.90;90.50;;;;;;6196096;23;20987;-89
2021/05/09 05:44:17;;;;;;;4.00;3.70;;;14.70;91.00;;;;;;6198872;23;20441;-89
2021/05/09 05:46:43;;;;;;;4.70;4.13;;;14.50;91.20;;;;;;6194822;23;20432;-89
2021/05/09 05:49:10;;;;;;;4.93;4.43;;;14.30;91.80;;;;;;6194678;23;20416;-90
2021/05/09 05:51:36;;;;;;;3.83;3.53;;;14.20;92.10;;;;;;6201670;23;20410;-89
2021/05/09 05:54:02;;;;;;;5.37;4.43;;;14.40;92.20;;;;;;6210534;23;20390;-89
2021/05/09 05:56:29;;;;;;;5.20;4.30;;;14.60;92.10;;;;;;6205226;23;20424;-88
2021/05/09 05:58:56;;;;;;;3.60;3.30;;;15.00;92.00;;;;;;6211227;23;20425;-88
2021/05/09 06:01:23;;;;;;;9.90;3.83;;;15.70;90.50;;;;;;6202489;23;20394;-88
2021/05/09 06:03:55;;;;;;;4.10;3.80;;;16.40;89.00;;;;;;6198184;23;20470;-88
2021/05/09 06:06:21;;;;;;;4.70;3.70;;;17.10;86.00;;;;;;6199824;23;20430;-87
2021/05/09 06:08:51;;;;;;;3.97;3.57;;;17.90;83.20;;;;;;6195481;23;20406;-89
2021/05/09 06:11:17;;;;;;;3.90;3.60;;;18.40;79.60;;;;;;6194273;23;20441;-89
2021/05/09 06:13:43;;;;;;;3.83;3.53;;;19.20;76.50;;;;;;6190202;23;20411;-89
2021/05/09 06:16:10;;;;;;;4.17;3.77;;;19.70;74.10;;;;;;6192749;23;20450;-88
2021/05/09 06:18:40;;;;;;;3.97;3.40;;;20.00;71.80;;;;;;6199825;23;20476;-89
2021/05/09 06:21:09;;;;;;;4.43;3.23;;;20.40;70.30;;;;;;6203640;23;20481;-88
2021/05/09 06:23:36;;;;;;;4.23;3.87;;;20.90;68.50;;;;;;6195550;23;20477;-89
2021/05/09 06:26:03;;;;;;;3.67;3.37;;;21.20;67.00;;;;;;6203272;23;20422;-90
2021/05/09 06:28:30;;;;;;;5.00;3.70;;;21.60;65.30;;;;;;6196990;23;20415;-88
2021/05/09 06:30:56;;;;;;;4.10;3.70;;;21.80;64.00;;;;;;6204995;23;21091;-90
2021/05/09 06:33:22;;;;;;;3.60;3.30;;;22.20;62.50;;;;;;6205601;23;20423;-89
2021/05/09 06:35:50;;;;;;;4.20;3.77;;;22.70;61.10;;;;;;6189998;23;20966;-89
2021/05/09 06:38:17;;;;;;;3.43;2.60;;;23.20;60.00;;;;;;6185936;23;20418;-89
2021/05/09 06:40:43;;;;;;;3.23;2.93;;;23.60;58.50;;;;;;6185284;23;20416;-89
2021/05/09 06:43:09;;;;;;;4.47;3.73;;;24.00;57.80;;;;;;6185586;23;20425;-89
2021/05/09 06:45:36;;;;;;;3.17;2.73;;;24.00;57.00;;;;;;6183670;23;20413;-88
2021/05/09 06:48:05;;;;;;;3.60;3.30;;;24.10;56.60;;;;;;6184742;23;20457;-88
2021/05/09 06:50:33;;;;;;;3.57;3.27;;;24.40;56.70;;;;;;6190107;23;20409;-89
2021/05/09 06:53:02;;;;;;;3.00;2.73;;;25.10;55.60;;;;;;6187134;23;20410;-89
2021/05/09 06:55:29;;;;;;;3.33;3.03;;;25.60;54.00;;;;;;6183758;23;20408;-89
2021/05/09 06:57:55;;;;;;;3.77;2.90;;;26.00;53.70;;;;;;6185090;23;20433;-89
2021/05/09 07:00:22;;;;;;;3.00;2.47;;;26.10;52.40;;;;;;6185348;23;20436;-89
2021/05/09 07:02:49;;;;;;;3.00;2.57;;;26.30;51.50;;;;;;6190382;23;20415;-90
2021/05/09 07:05:15;;;;;;;3.33;2.57;;;26.80;51.20;;;;;;6185198;23;20530;-90
2021/05/09 07:07:49;;;;;;;2.93;2.73;;;27.20;50.60;;;;;;6185085;23;20436;-90
2021/05/09 07:10:16;;;;;;;3.73;2.50;;;27.40;49.70;;;;;;6186340;23;21001;-90
2021/05/09 07:12:42;;;;;;;2.33;2.13;;;27.80;49.00;;;;;;6186052;23;20429;-90
2021/05/09 07:15:10;;;;;;;4.13;3.43;;;28.00;48.60;;;;;;6188163;23;20402;-89
2021/05/09 07:17:37;;;;;;;2.93;2.60;;;28.20;47.80;;;;;;6196106;23;20461;-89
2021/05/09 07:20:04;;;;;;;2.33;2.13;;;28.50;47.00;;;;;;6203487;23;20913;-89
2021/05/09 07:22:33;;;;;;;2.73;2.20;;;28.60;46.80;;;;;;6188630;23;20409;-90
2021/05/09 07:25:00;;;;;;;2.70;1.93;;;28.60;46.90;;;;;;6187302;23;20541;-90
2021/05/09 07:27:27;;;;;;;6.20;2.40;;;28.90;45.30;;;;;;6188611;23;20520;-89
2021/05/09 07:29:53;;;;;;;1.73;1.47;;;28.90;44.80;;;;;;6186236;23;20437;-90
2021/05/09 07:32:19;;;;;;;3.07;2.17;;;28.90;44.70;;;;;;6188342;23;20406;-90
2021/05/09 07:34:46;;;;;;;2.20;1.90;;;29.60;44.60;;;;;;6208229;23;20481;-89
2021/05/09 07:37:12;;;;;;;2.40;2.20;;;29.90;42.90;;;;;;6212903;23;20433;-89
2021/05/09 07:39:38;;;;;;;2.00;1.80;;;29.90;42.40;;;;;;6210560;23;20389;-89
2021/05/09 07:42:32;;;;;;;2.40;2.20;;;29.80;43.10;;;;;;6203697;23;20406;-91
2021/05/09 08:07:08;;;;;;;2.70;2.20;;;30.90;40.00;;;;;;6196688;23;20451;-91
2021/05/09 08:09:35;;;;;;;4.53;1.70;;;31.90;39.30;;;;;;6159554;23;20414;-90
2021/05/09 08:12:02;;;;;;;3.30;2.17;;;33.30;38.40;;;;;;6193122;23;20501;-91
2021/05/09 08:14:29;;;;;;;4.13;2.40;;;33.20;36.50;;;;;;6192204;23;20445;-90
2021/05/09 08:16:56;;;;;;;2.00;1.80;;;33.20;36.90;;;;;;6193633;23;20521;-91
2021/05/09 08:19:22;;;;;;;4.00;1.73;;;32.30;37.10;;;;;;6193652;23;20855;-91
2021/05/09 08:21:50;;;;;;;2.50;1.80;;;32.10;38.50;;;;;;6207531;23;20447;-92
2021/05/09 08:24:17;;;;;;;2.90;1.80;;;32.40;37.40;;;;;;6206877;23;20394;-91
2021/05/09 08:26:44;;;;;;;2.10;1.90;;;32.60;37.60;;;;;;6205473;23;20414;-91
2021/05/09 08:29:11;;;;;;;2.63;1.90;;;32.40;37.10;;;;;;6204005;23;20440;-92
2021/05/09 08:31:38;;;;;;;5.17;1.93;;;31.90;37.80;;;;;;6210187;23;20378;-91
2021/05/09 08:34:08;;;;;;;2.67;1.80;;;32.20;38.10;;;;;;6200450;23;21039;-90
2021/05/09 08:36:35;;;;;;;3.00;2.00;;;33.20;37.50;;;;;;6190365;23;20754;-91
2021/05/09 08:39:05;;;;;;;2.30;2.07;;;33.40;37.00;;;;;;6190489;23;20501;-90
2021/05/09 08:41:33;;;;;;;2.30;1.80;;;33.10;36.50;;;;;;6189924;23;20375;-91
2021/05/09 08:44:00;;;;;;;2.70;2.17;;;33.30;36.90;;;;;;6189084;23;20413;-90
2021/05/09 08:46:27;;;;;;;1.90;1.70;;;33.20;36.40;;;;;;6189651;23;20493;-91
2021/05/09 08:48:55;;;;;;;4.80;2.03;;;33.40;36.40;;;;;;6189682;23;20448;-90
2021/05/09 08:51:22;;;;;;;2.43;1.93;;;34.30;35.50;;;;;;6191717;23;20469;-91
2021/05/09 08:53:49;;;;;;;2.33;2.13;;;34.60;34.80;;;;;;6188927;23;20437;-92
2021/05/09 08:56:16;;;;;;;1.80;1.70;;;34.00;35.10;;;;;;6190733;23;20519;-92
2021/05/09 08:58:42;;;;;;;2.10;1.90;;;34.00;35.20;;;;;;6190481;23;20441;-90
2021/05/09 09:01:09;;;;;;;2.53;2.33;;;33.30;36.40;;;;;;6190565;23;20489;-92
2021/05/09 09:03:38;;;;;;;4.20;3.00;;;33.40;36.60;;;;;;6193502;23;20870;-90
2021/05/09 09:06:09;;;;;;;2.10;1.90;;;33.30;36.80;;;;;;6194367;23;20502;-92
2021/05/09 09:08:55;;;;;;;3.83;2.23;;;33.60;36.50;;;;;;6204257;23;20398;-92
2021/05/09 09:11:26;;;;;;;2.20;1.90;;;34.00;36.60;;;;;;6208336;23;20885;-91
2021/05/09 09:14:08;;;;;;;2.13;1.87;;;34.50;35.40;;;;;;6188392;23;20438;-91
2021/05/09 09:16:36;;;;;;;2.17;1.97;;;34.40;35.80;;;;;;6184834;23;20433;-91
2021/05/09 09:19:10;;;;;;;3.80;2.20;;;34.80;35.40;;;;;;6191290;23;20414;-91
2021/05/09 09:21:37;;;;;;;3.00;2.70;;;34.60;35.30;;;;;;6191641;23;20460;-90
2021/05/09 09:24:06;;;;;;;2.23;2.03;;;35.00;35.00;;;;;;6190544;23;20398;-91
2021/05/09 09:26:38;;;;;;;2.73;2.53;;;35.90;34.30;;;;;;6191152;23;20422;-88
2021/05/09 09:29:25;;;;;;;1.80;1.70;;;36.30;33.40;;;;;;6189788;23;20394;-90
2021/05/09 09:31:54;;;;;;;3.03;1.80;;;37.30;33.20;;;;;;6188938;23;20401;-90
2021/05/09 09:34:22;;;;;;;2.47;1.70;;;37.60;31.10;;;;;;6190000;23;20422;-90
2021/05/09 09:36:48;;;;;;;3.30;1.80;;;38.30;30.70;;;;;;6201324;23;20436;-90
2021/05/09 09:39:15;;;;;;;3.20;1.60;;;38.40;30.30;;;;;;6212450;23;20449;-91
2021/05/09 09:41:45;;;;;;;2.47;1.83;;;37.30;31.30;;;;;;6189735;23;20406;-91
2021/05/09 09:44:13;;;;;;;2.90;2.00;;;37.00;31.20;;;;;;6185973;23;20402;-91
2021/05/09 09:46:41;;;;;;;1.93;1.73;;;37.50;31.00;;;;;;6186672;23;20438;-90
2021/05/09 09:49:21;;;;;;;2.63;1.83;;;37.20;31.10;;;;;;6185726;23;20409;-91
2021/05/09 09:51:53;;;;;;;2.20;1.70;;;37.50;30.70;;;;;;6186019;23;20469;-91
2021/05/09 09:54:46;;;;;;;1.70;1.60;;;38.00;29.90;;;;;;6185709;23;20426;-90
2021/05/09 09:57:29;;;;;;;1.73;1.60;;;37.70;29.20;;;;;;6118630;23;20513;-87
2021/05/09 10:00:07;;;;;;;3.00;2.07;;;37.80;28.40;;;;;;6185417;23;20390;-87
2021/05/09 10:02:33;;;;;;;4.13;1.57;;;38.80;29.00;;;;;;6185106;23;20409;-88
2021/05/09 10:05:00;;;;;;;2.50;1.50;;;38.60;28.70;;;;;;6185751;23;20478;-89
2021/05/09 10:07:27;;;;;;;2.13;1.63;;;38.40;28.70;;;;;;6185646;23;20440;-88
2021/05/09 10:09:56;;;;;;;1.73;1.50;;;38.70;28.60;;;;;;6186246;23;20773;-90
2021/05/09 10:12:24;;;;;;;1.93;1.70;;;38.40;27.60;;;;;;6188595;23;20428;-90
2021/05/09 10:14:50;;;;;;;1.90;1.60;;;38.10;27.80;;;;;;6187609;23;20433;-88
2021/05/09 10:17:17;;;;;;;2.60;1.47;;;38.10;27.30;;;;;;6188146;23;20425;-85
2021/05/09 10:19:44;;;;;;;1.50;1.40;;;37.10;27.70;;;;;;6193692;23;20414;-90
2021/05/09 10:22:27;;;;;;;3.13;1.73;;;36.60;27.90;;;;;;6192781;23;20436;-88
2021/05/09 10:24:54;;;;;;;1.47;1.37;;;36.60;28.50;;;;;;6187855;23;21036;-89
2021/05/09 10:27:21;;;;;;;1.70;1.20;;;36.10;28.40;;;;;;6195737;23;20429;-89
2021/05/09 10:29:51;;;;;;;1.50;1.40;;;36.10;29.10;;;;;;6209053;23;20440;-89
2021/05/09 10:32:49;;;;;;;1.50;1.40;;;37.10;28.20;;;;;;6207682;23;20390;-90
2021/05/09 10:35:16;;;;;;;1.77;1.27;;;37.90;27.00;;;;;;6202546;23;20429;-90
2021/05/09 10:41:10;;;;;;;2.33;1.90;;;37.50;26.80;;;;;;6195314;23;20394;-88
2021/05/09 10:43:38;;;;;;;2.27;1.57;;;37.40;27.50;;;;;;6190600;23;20438;-87
2021/05/09 10:46:08;;;;;;;1.97;1.40;;;37.80;27.40;;;;;;6199746;23;20434;-92
2021/05/09 10:48:36;;;;;;;2.97;1.30;;;38.20;26.70;;;;;;6201942;23;20410;-89
2021/05/09 10:51:30;;;;;;;3.00;2.70;;;39.10;25.80;;;;;;6192640;23;20493;-90
2021/05/09 10:54:15;;;;;;;1.50;1.23;;;38.40;25.60;;;;;;6192222;23;20442;-89
2021/05/09 10:56:42;;;;;;;1.40;1.30;;;38.20;26.10;;;;;;6201606;23;20429;-90
2021/05/09 10:59:08;;;;;;;2.70;1.20;;;37.10;25.80;;;;;;6202914;23;20394;-89
2021/05/09 11:01:36;;;;;;;1.40;1.30;;;36.30;25.30;;;;;;6204481;23;20402;-90
2021/05/09 11:04:04;;;;;;;2.30;1.37;;;36.90;25.80;;;;;;6205971;23;20414;-90
2021/05/09 11:06:45;;;;;;;1.60;1.40;;;37.40;24.80;;;;;;6197189;23;20860;-90
2021/05/09 11:09:13;;;;;;;1.47;1.33;;;36.50;24.80;;;;;;6196061;23;20947;-89
2021/05/09 11:12:06;;;;;;;2.10;1.33;;;36.30;25.50;;;;;;6191576;23;20414;-90
2021/05/09 11:14:36;;;;;;;2.50;1.27;;;37.30;25.90;;;;;;6191707;23;20773;-89
2021/05/09 11:17:07;;;;;;;1.80;1.30;;;36.60;25.70;;;;;;6191176;23;20468;-89
2021/05/09 11:19:50;;;;;;;3.40;1.57;;;36.40;25.40;;;;;;6198348;23;20485;-89
2021/05/09 11:22:24;;;;;;;1.60;1.47;;;36.20;24.90;;;;;;6193094;23;20470;-90
2021/05/09 11:24:55;;;;;;;1.10;1.00;;;35.80;26.10;;;;;;6193095;23;20944;-91
2021/05/09 11:27:22;;;;;;;2.20;1.30;;;36.20;26.20;;;;;;6191569;23;20434;-89
2021/05/09 11:29:50;;;;;;;1.67;1.47;;;37.30;25.90;;;;;;6191084;23;20386;-89
2021/05/09 11:32:18;;;;;;;1.83;1.20;;;37.60;24.40;;;;;;6195973;23;20499;-91
2021/05/09 11:34:59;;;;;;;3.67;1.47;;;37.60;24.80;;;;;;6183772;23;20908;-83
2021/05/09 11:37:37;;;;;;;2.33;1.50;;;38.60;24.10;;;;;;6191796;23;20951;-87
2021/05/09 11:40:06;;;;;;;1.53;1.17;;;38.00;23.70;;;;;;6193100;23;20429;-84
2021/05/09 11:42:33;;;;;;;1.50;1.17;;;37.30;24.40;;;;;;6192078;23;20391;-84
2021/05/09 11:44:59;;;;;;;1.93;1.50;;;38.20;24.40;;;;;;6188599;23;20421;-83
2021/05/09 11:47:27;;;;;;;2.47;1.40;;;38.90;24.10;;;;;;6190762;23;20382;-84
2021/05/09 11:49:56;;;;;;;2.03;1.47;;;39.40;23.20;;;;;;6191175;23;20406;-83
2021/05/09 11:52:24;;;;;;;2.10;1.33;;;40.30;23.20;;;;;;6194211;23;20402;-84
2021/05/09 11:54:53;;;;;;;1.67;1.57;;;41.00;21.80;;;;;;6188411;23;20450;-83
2021/05/09 11:57:21;;;;;;;1.87;1.30;;;40.50;21.70;;;;;;6186067;23;20505;-83
2021/05/09 11:59:48;;;;;;;1.47;1.20;;;40.50;21.90;;;;;;6187493;23;20394;-83
2021/05/09 12:02:23;;;;;;;1.67;1.30;;;39.30;22.00;;;;;;6209069;23;20404;-81
2021/05/09 12:04:51;;;;;;;1.50;1.20;;;37.80;22.40;;;;;;6213473;23;20468;-82
2021/05/09 12:07:19;;;;;;;1.70;1.37;;;37.50;23.10;;;;;;6207619;23;20402;-82
2021/05/09 12:10:04;;;;;;;2.00;1.13;;;38.10;23.00;;;;;;6195145;23;20405;-84
2021/05/09 12:12:32;;;;;;;1.97;1.77;;;38.50;22.40;;;;;;6194119;23;20389;-84
2021/05/09 12:15:11;;;;;;;1.40;1.30;;;36.80;23.70;;;;;;6207729;23;20485;-83
2021/05/09 12:17:49;;;;;;;1.40;1.30;;;36.60;24.40;;;;;;6192962;23;20371;-84
2021/05/09 12:20:27;;;;;;;2.40;1.20;;;37.20;23.30;;;;;;6193040;23;20409;-84
2021/05/09 12:22:54;;;;;;;3.37;1.57;;;36.90;23.60;;;;;;6191755;23;20503;-83
2021/05/09 12:25:40;;;;;;;2.10;1.40;;;37.70;23.90;;;;;;6194471;23;20426;-84
2021/05/09 12:28:12;;;;;;;2.47;1.57;;;36.70;23.60;;;;;;6199289;23;20432;-83
2021/05/09 12:30:40;;;;;;;1.60;1.27;;;35.60;24.30;;;;;;6199958;23;20552;-84
2021/05/09 12:33:08;;;;;;;1.27;1.17;;;36.40;25.20;;;;;;6190826;23;20405;-84
2021/05/09 12:35:44;;;;;;;2.40;1.07;;;37.50;24.10;;;;;;6189354;23;20456;-84
2021/05/09 12:38:10;;;;;;;1.40;1.30;;;37.70;24.30;;;;;;6200287;23;20398;-85
2021/05/09 12:40:38;;;;;;;2.83;1.33;;;38.10;23.80;;;;;;6194930;23;20436;-83
2021/05/09 12:43:07;;;;;;;2.30;1.73;;;38.10;23.60;;;;;;6190332;23;20473;-83
2021/05/09 12:45:37;;;;;;;2.03;1.20;;;38.20;23.20;;;;;;6189379;23;20533;-84
2021/05/09 12:48:09;;;;;;;3.23;1.30;;;39.00;22.90;;;;;;6189206;23;20402;-85
2021/05/09 12:50:56;;;;;;;1.60;1.50;;;40.10;22.80;;;;;;6189005;23;20424;-84
2021/05/09 12:53:46;;;;;;;1.40;1.30;;;41.60;21.40;;;;;;6189083;23;20394;-83
2021/05/09 12:56:31;;;;;;;1.20;1.10;;;41.10;21.00;;;;;;6188632;23;20425;-84
2021/05/09 12:59:04;;;;;;;1.73;1.10;;;41.20;21.70;;;;;;6189869;23;20892;-83
2021/05/09 13:01:32;;;;;;;1.60;1.50;;;40.90;21.90;;;;;;6192016;23;20485;-83
2021/05/09 13:03:59;;;;;;;1.43;1.30;;;39.90;21.90;;;;;;6196170;23;20394;-83
2021/05/09 13:06:26;;;;;;;1.30;1.20;;;39.10;22.20;;;;;;6200008;23;20434;-82
2021/05/09 13:08:54;;;;;;;2.90;1.30;;;38.10;22.00;;;;;;6212501;23;20390;-80
2021/05/09 13:11:20;;;;;;;1.50;1.30;;;37.70;23.10;;;;;;6212910;23;20395;-81
2021/05/09 13:13:46;;;;;;;2.20;1.10;;;37.30;23.40;;;;;;6213543;23;20440;-82
2021/05/09 13:16:12;;;;;;;3.53;1.33;;;37.60;23.90;;;;;;6212346;23;20406;-82
2021/05/09 13:18:39;;;;;;;1.80;1.37;;;37.10;23.20;;;;;;6212861;23;20457;-82
2021/05/09 13:21:06;;;;;;;1.80;1.40;;;36.80;23.80;;;;;;6212803;23;20421;-81
2021/05/09 13:23:32;;;;;;;1.83;1.17;;;37.00;23.50;;;;;;6201651;23;20405;-84
2021/05/09 13:25:58;;;;;;;2.17;1.47;;;36.80;23.80;;;;;;6194175;23;20943;-84
2021/05/09 13:28:25;;;;;;;2.20;1.50;;;37.40;23.30;;;;;;6193801;23;20412;-84